sensor_id;sensor_type;location;lat;lon;timestamp;P1;P2;P0
62591;PMS5003;48659;41.622;2.276;2023-10-31T00:00:45;2;2;
62591;PMS5003;48659;41.622;2.276;2023-10-31T00:03:13;5;5;
62591;PMS5003;48659;41.622;2.276;2023-10-31T00:05:40;4;4;
62591;PMS5003;48659;41.622;2.276;2023-10-31T00:08:08;0;0;
62591;PMS5003;48659;41.622;2.276;2023-10-31T00:10:46;1;1;
62591;PMS5003;48659;41.622;2.276;2023-10-31T00:13:13;2;2;
62591;PMS5003;48659;41.622;2.276;2023-10-31T00:15:41;1;1;
62591;PMS5003;48659;41.622;2.276;2023-10-31T00:18:09;1;1;
62591;PMS5003;48659;41.622;2.276;2023-10-31T00:20:38;1;1;
62591;PMS5003;48659;41.622;2.276;2023-10-31T00:23:06;0;0;
62591;PMS5003;48659;41.622;2.276;2023-10-31T00:25:34;1;1;
62591;PMS5003;48659;41.622;2.276;2023-10-31T00:28:01;1;1;
62591;PMS5003;48659;41.622;2.276;2023-10-31T00:30:28;1;1;
62591;PMS5003;48659;41.622;2.276;2023-10-31T00:33:05;2;0;
62591;PMS5003;48659;41.622;2.276;2023-10-31T00:35:38;0;0;
62591;PMS5003;48659;41.622;2.276;2023-10-31T00:38:05;3;2;
62591;PMS5003;48659;41.622;2.276;2023-10-31T00:40:47;1;1;
62591;PMS5003;48659;41.622;2.276;2023-10-31T00:43:14;1;0;
62591;PMS5003;48659;41.622;2.276;2023-10-31T00:45:41;0;0;
62591;PMS5003;48659;41.622;2.276;2023-10-31T00:48:09;1;1;
62591;PMS5003;48659;41.622;2.276;2023-10-31T00:50:36;1;1;
62591;PMS5003;48659;41.622;2.276;2023-10-31T00:53:04;1;1;
62591;PMS5003;48659;41.622;2.276;2023-10-31T00:55:38;1;1;
62591;PMS5003;48659;41.622;2.276;2023-10-31T00:58:06;0;0;
62591;PMS5003;48659;41.622;2.276;2023-10-31T01:00:33;1;1;
62591;PMS5003;48659;41.622;2.276;2023-10-31T01:03:01;1;1;
62591;PMS5003;48659;41.622;2.276;2023-10-31T01:05:38;2;0;
62591;PMS5003;48659;41.622;2.276;2023-10-31T01:08:06;1;1;
62591;PMS5003;48659;41.622;2.276;2023-10-31T01:10:38;0;0;
62591;PMS5003;48659;41.622;2.276;2023-10-31T01:13:05;1;1;
62591;PMS5003;48659;41.622;2.276;2023-10-31T01:15:37;5;5;
62591;PMS5003;48659;41.622;2.276;2023-10-31T01:18:05;2;2;
62591;PMS5003;48659;41.622;2.276;2023-10-31T01:20:39;2;2;
62591;PMS5003;48659;41.622;2.276;2023-10-31T01:23:06;0;0;
62591;PMS5003;48659;41.622;2.276;2023-10-31T01:25:37;3;2;
62591;PMS5003;48659;41.622;2.276;2023-10-31T01:28:05;3;2;
62591;PMS5003;48659;41.622;2.276;2023-10-31T01:30:38;6;5;
62591;PMS5003;48659;41.622;2.276;2023-10-31T01:33:05;5;5;
62591;PMS5003;48659;41.622;2.276;2023-10-31T01:35:38;2;2;
62591;PMS5003;48659;41.622;2.276;2023-10-31T01:38:05;5;5;
62591;PMS5003;48659;41.622;2.276;2023-10-31T01:40:41;6;6;
62591;PMS5003;48659;41.622;2.276;2023-10-31T01:43:09;2;2;
62591;PMS5003;48659;41.622;2.276;2023-10-31T01:45:36;2;2;
62591;PMS5003;48659;41.622;2.276;2023-10-31T01:48:04;0;0;
62591;PMS5003;48659;41.622;2.276;2023-10-31T01:50:46;1;1;
62591;PMS5003;48659;41.622;2.276;2023-10-31T01:53:14;1;1;
62591;PMS5003;48659;41.622;2.276;2023-10-31T01:55:41;0;0;
62591;PMS5003;48659;41.622;2.276;2023-10-31T01:58:10;0;0;
62591;PMS5003;48659;41.622;2.276;2023-10-31T02:00:39;0;0;
62591;PMS5003;48659;41.622;2.276;2023-10-31T02:03:07;0;0;
62591;PMS5003;48659;41.622;2.276;2023-10-31T02:05:37;1;0;
62591;PMS5003;48659;41.622;2.276;2023-10-31T02:08:06;2;2;
62591;PMS5003;48659;41.622;2.276;2023-10-31T02:14:54;2;2;
62591;PMS5003;48659;41.622;2.276;2023-10-31T02:17:22;1;1;
62591;PMS5003;48659;41.622;2.276;2023-10-31T02:19:50;0;0;
62591;PMS5003;48659;41.622;2.276;2023-10-31T02:22:17;1;1;
62591;PMS5003;48659;41.622;2.276;2023-10-31T02:24:44;1;1;
62591;PMS5003;48659;41.622;2.276;2023-10-31T02:27:12;0;0;
62591;PMS5003;48659;41.622;2.276;2023-10-31T02:29:40;1;1;
62591;PMS5003;48659;41.622;2.276;2023-10-31T02:32:08;3;2;
62591;PMS5003;48659;41.622;2.276;2023-10-31T02:34:36;1;1;
62591;PMS5003;48659;41.622;2.276;2023-10-31T02:37:03;2;2;
62591;PMS5003;48659;41.622;2.276;2023-10-31T02:39:30;1;1;
62591;PMS5003;48659;41.622;2.276;2023-10-31T02:42:06;1;1;
62591;PMS5003;48659;41.622;2.276;2023-10-31T02:44:34;1;1;
62591;PMS5003;48659;41.622;2.276;2023-10-31T02:47:02;3;1;
62591;PMS5003;48659;41.622;2.276;2023-10-31T02:49:29;0;0;
62591;PMS5003;48659;41.622;2.276;2023-10-31T02:51:57;0;0;
62591;PMS5003;48659;41.622;2.276;2023-10-31T02:54:24;1;1;
62591;PMS5003;48659;41.622;2.276;2023-10-31T02:56:51;1;1;
62591;PMS5003;48659;41.622;2.276;2023-10-31T02:59:18;0;0;
62591;PMS5003;48659;41.622;2.276;2023-10-31T03:01:46;1;1;
62591;PMS5003;48659;41.622;2.276;2023-10-31T03:04:13;4;1;
62591;PMS5003;48659;41.622;2.276;2023-10-31T03:06:41;1;1;
62591;PMS5003;48659;41.622;2.276;2023-10-31T03:09:09;1;1;
62591;PMS5003;48659;41.622;2.276;2023-10-31T03:11:35;1;1;
62591;PMS5003;48659;41.622;2.276;2023-10-31T03:14:04;1;1;
62591;PMS5003;48659;41.622;2.276;2023-10-31T03:16:31;2;2;
62591;PMS5003;48659;41.622;2.276;2023-10-31T03:19:01;0;0;
62591;PMS5003;48659;41.622;2.276;2023-10-31T03:21:30;1;1;
62591;PMS5003;48659;41.622;2.276;2023-10-31T03:24:02;1;1;
62591;PMS5003;48659;41.622;2.276;2023-10-31T03:26:30;0;0;
62591;PMS5003;48659;41.622;2.276;2023-10-31T03:28:57;0;0;
62591;PMS5003;48659;41.622;2.276;2023-10-31T03:31:25;0;0;
62591;PMS5003;48659;41.622;2.276;2023-10-31T03:33:53;1;1;
62591;PMS5003;48659;41.622;2.276;2023-10-31T03:36:21;0;0;
62591;PMS5003;48659;41.622;2.276;2023-10-31T03:38:48;1;1;
62591;PMS5003;48659;41.622;2.276;2023-10-31T03:41:15;2;1;
62591;PMS5003;48659;41.622;2.276;2023-10-31T03:43:43;2;2;
62591;PMS5003;48659;41.622;2.276;2023-10-31T03:46:11;1;1;
62591;PMS5003;48659;41.622;2.276;2023-10-31T03:48:39;1;1;
62591;PMS5003;48659;41.622;2.276;2023-10-31T03:51:08;1;1;
62591;PMS5003;48659;41.622;2.276;2023-10-31T03:53:36;1;1;
62591;PMS5003;48659;41.622;2.276;2023-10-31T03:56:03;1;1;
62591;PMS5003;48659;41.622;2.276;2023-10-31T03:58:31;4;4;
62591;PMS5003;48659;41.622;2.276;2023-10-31T04:00:59;3;1;
62591;PMS5003;48659;41.622;2.276;2023-10-31T04:03:27;2;2;
62591;PMS5003;48659;41.622;2.276;2023-10-31T04:05:55;2;2;
62591;PMS5003;48659;41.622;2.276;2023-10-31T04:08:22;2;2;
62591;PMS5003;48659;41.622;2.276;2023-10-31T04:10:50;1;1;
62591;PMS5003;48659;41.622;2.276;2023-10-31T04:13:17;0;0;
62591;PMS5003;48659;41.622;2.276;2023-10-31T04:15:44;2;1;
62591;PMS5003;48659;41.622;2.276;2023-10-31T04:18:11;1;1;
62591;PMS5003;48659;41.622;2.276;2023-10-31T04:20:38;2;1;
62591;PMS5003;48659;41.622;2.276;2023-10-31T04:23:06;1;1;
62591;PMS5003;48659;41.622;2.276;2023-10-31T04:25:34;1;1;
62591;PMS5003;48659;41.622;2.276;2023-10-31T04:28:02;0;0;
62591;PMS5003;48659;41.622;2.276;2023-10-31T04:30:29;1;1;
62591;PMS5003;48659;41.622;2.276;2023-10-31T04:33:02;1;1;
62591;PMS5003;48659;41.622;2.276;2023-10-31T04:35:30;1;1;
62591;PMS5003;48659;41.622;2.276;2023-10-31T04:38:02;1;0;
62591;PMS5003;48659;41.622;2.276;2023-10-31T04:40:29;2;2;
62591;PMS5003;48659;41.622;2.276;2023-10-31T04:42:56;3;3;
62591;PMS5003;48659;41.622;2.276;2023-10-31T04:45:24;3;3;
62591;PMS5003;48659;41.622;2.276;2023-10-31T04:47:52;6;4;
62591;PMS5003;48659;41.622;2.276;2023-10-31T04:50:20;6;4;
62591;PMS5003;48659;41.622;2.276;2023-10-31T04:52:47;3;3;
62591;PMS5003;48659;41.622;2.276;2023-10-31T04:55:15;5;5;
62591;PMS5003;48659;41.622;2.276;2023-10-31T04:57:42;7;6;
62591;PMS5003;48659;41.622;2.276;2023-10-31T05:00:10;6;6;
62591;PMS5003;48659;41.622;2.276;2023-10-31T05:02:38;5;5;
62591;PMS5003;48659;41.622;2.276;2023-10-31T05:05:05;5;5;
62591;PMS5003;48659;41.622;2.276;2023-10-31T05:07:33;1;1;
62591;PMS5003;48659;41.622;2.276;2023-10-31T05:10:02;3;3;
62591;PMS5003;48659;41.622;2.276;2023-10-31T05:12:30;3;3;
62591;PMS5003;48659;41.622;2.276;2023-10-31T05:14:57;6;5;
62591;PMS5003;48659;41.622;2.276;2023-10-31T05:17:25;3;3;
62591;PMS5003;48659;41.622;2.276;2023-10-31T05:19:53;1;1;
62591;PMS5003;48659;41.622;2.276;2023-10-31T05:22:35;2;2;
62591;PMS5003;48659;41.622;2.276;2023-10-31T05:25:04;3;3;
62591;PMS5003;48659;41.622;2.276;2023-10-31T05:27:32;5;2;
62591;PMS5003;48659;41.622;2.276;2023-10-31T05:30:03;4;4;
62591;PMS5003;48659;41.622;2.276;2023-10-31T05:32:32;4;4;
62591;PMS5003;48659;41.622;2.276;2023-10-31T05:34:59;2;2;
62591;PMS5003;48659;41.622;2.276;2023-10-31T05:37:27;1;1;
62591;PMS5003;48659;41.622;2.276;2023-10-31T05:39:54;2;2;
62591;PMS5003;48659;41.622;2.276;2023-10-31T05:42:21;1;1;
62591;PMS5003;48659;41.622;2.276;2023-10-31T05:44:48;2;2;
62591;PMS5003;48659;41.622;2.276;2023-10-31T05:47:16;3;2;
62591;PMS5003;48659;41.622;2.276;2023-10-31T05:49:43;2;2;
62591;PMS5003;48659;41.622;2.276;2023-10-31T05:52:10;1;1;
62591;PMS5003;48659;41.622;2.276;2023-10-31T05:54:38;1;1;
62591;PMS5003;48659;41.622;2.276;2023-10-31T05:57:05;2;1;
62591;PMS5003;48659;41.622;2.276;2023-10-31T05:59:32;3;1;
62591;PMS5003;48659;41.622;2.276;2023-10-31T06:02:00;3;1;
62591;PMS5003;48659;41.622;2.276;2023-10-31T06:04:27;1;1;
62591;PMS5003;48659;41.622;2.276;2023-10-31T06:06:55;3;3;
62591;PMS5003;48659;41.622;2.276;2023-10-31T06:09:23;2;2;
62591;PMS5003;48659;41.622;2.276;2023-10-31T06:11:51;3;3;
62591;PMS5003;48659;41.622;2.276;2023-10-31T06:14:18;0;0;
62591;PMS5003;48659;41.622;2.276;2023-10-31T06:16:45;5;3;
62591;PMS5003;48659;41.622;2.276;2023-10-31T06:19:12;3;1;
62591;PMS5003;48659;41.622;2.276;2023-10-31T06:21:39;2;2;
62591;PMS5003;48659;41.622;2.276;2023-10-31T06:24:08;1;1;
62591;PMS5003;48659;41.622;2.276;2023-10-31T06:26:35;1;1;
62591;PMS5003;48659;41.622;2.276;2023-10-31T06:29:02;5;3;
62591;PMS5003;48659;41.622;2.276;2023-10-31T06:31:29;3;2;
62591;PMS5003;48659;41.622;2.276;2023-10-31T06:33:56;2;2;
62591;PMS5003;48659;41.622;2.276;2023-10-31T06:36:24;1;1;
62591;PMS5003;48659;41.622;2.276;2023-10-31T06:38:52;1;1;
62591;PMS5003;48659;41.622;2.276;2023-10-31T06:41:19;0;0;
62591;PMS5003;48659;41.622;2.276;2023-10-31T06:43:46;2;2;
62591;PMS5003;48659;41.622;2.276;2023-10-31T06:46:14;4;4;
62591;PMS5003;48659;41.622;2.276;2023-10-31T06:48:41;2;1;
62591;PMS5003;48659;41.622;2.276;2023-10-31T06:51:08;2;1;
62591;PMS5003;48659;41.622;2.276;2023-10-31T06:53:35;2;1;
62591;PMS5003;48659;41.622;2.276;2023-10-31T06:56:03;1;1;
62591;PMS5003;48659;41.622;2.276;2023-10-31T06:58:31;2;1;
62591;PMS5003;48659;41.622;2.276;2023-10-31T07:00:58;1;1;
62591;PMS5003;48659;41.622;2.276;2023-10-31T07:03:26;2;2;
62591;PMS5003;48659;41.622;2.276;2023-10-31T07:05:53;2;2;
62591;PMS5003;48659;41.622;2.276;2023-10-31T07:08:21;2;2;
62591;PMS5003;48659;41.622;2.276;2023-10-31T07:10:49;2;2;
62591;PMS5003;48659;41.622;2.276;2023-10-31T07:13:16;2;2;
62591;PMS5003;48659;41.622;2.276;2023-10-31T07:15:43;3;2;
62591;PMS5003;48659;41.622;2.276;2023-10-31T07:18:11;5;2;
62591;PMS5003;48659;41.622;2.276;2023-10-31T07:20:39;2;2;
62591;PMS5003;48659;41.622;2.276;2023-10-31T07:23:06;2;1;
62591;PMS5003;48659;41.622;2.276;2023-10-31T07:25:33;2;2;
62591;PMS5003;48659;41.622;2.276;2023-10-31T07:28:00;1;1;
62591;PMS5003;48659;41.622;2.276;2023-10-31T07:30:28;3;1;
62591;PMS5003;48659;41.622;2.276;2023-10-31T07:32:55;2;2;
62591;PMS5003;48659;41.622;2.276;2023-10-31T07:35:22;4;2;
62591;PMS5003;48659;41.622;2.276;2023-10-31T07:37:49;3;2;
62591;PMS5003;48659;41.622;2.276;2023-10-31T07:40:17;2;1;
62591;PMS5003;48659;41.622;2.276;2023-10-31T07:42:44;1;1;
62591;PMS5003;48659;41.622;2.276;2023-10-31T07:45:11;1;1;
62591;PMS5003;48659;41.622;2.276;2023-10-31T07:47:38;1;1;
62591;PMS5003;48659;41.622;2.276;2023-10-31T07:50:06;0;0;
62591;PMS5003;48659;41.622;2.276;2023-10-31T07:52:34;0;0;
62591;PMS5003;48659;41.622;2.276;2023-10-31T07:55:01;1;1;
62591;PMS5003;48659;41.622;2.276;2023-10-31T07:57:28;0;0;
62591;PMS5003;48659;41.622;2.276;2023-10-31T07:59:55;1;1;
62591;PMS5003;48659;41.622;2.276;2023-10-31T08:02:22;1;1;
62591;PMS5003;48659;41.622;2.276;2023-10-31T08:04:50;0;0;
62591;PMS5003;48659;41.622;2.276;2023-10-31T08:07:17;1;1;
62591;PMS5003;48659;41.622;2.276;2023-10-31T08:09:44;1;1;
62591;PMS5003;48659;41.622;2.276;2023-10-31T08:12:12;0;0;
62591;PMS5003;48659;41.622;2.276;2023-10-31T08:14:40;2;1;
62591;PMS5003;48659;41.622;2.276;2023-10-31T08:17:08;3;1;
62591;PMS5003;48659;41.622;2.276;2023-10-31T08:19:35;2;1;
62591;PMS5003;48659;41.622;2.276;2023-10-31T08:22:02;1;1;
62591;PMS5003;48659;41.622;2.276;2023-10-31T08:24:30;0;0;
62591;PMS5003;48659;41.622;2.276;2023-10-31T08:26:58;1;1;
62591;PMS5003;48659;41.622;2.276;2023-10-31T08:29:26;1;0;
62591;PMS5003;48659;41.622;2.276;2023-10-31T08:31:53;1;1;
62591;PMS5003;48659;41.622;2.276;2023-10-31T08:34:21;1;1;
62591;PMS5003;48659;41.622;2.276;2023-10-31T08:36:48;0;0;
62591;PMS5003;48659;41.622;2.276;2023-10-31T08:39:16;0;0;
62591;PMS5003;48659;41.622;2.276;2023-10-31T08:41:52;1;1;
62591;PMS5003;48659;41.622;2.276;2023-10-31T08:44:20;1;1;
62591;PMS5003;48659;41.622;2.276;2023-10-31T08:46:47;1;1;
62591;PMS5003;48659;41.622;2.276;2023-10-31T08:49:15;2;2;
62591;PMS5003;48659;41.622;2.276;2023-10-31T08:51:44;1;1;
62591;PMS5003;48659;41.622;2.276;2023-10-31T08:54:12;2;1;
62591;PMS5003;48659;41.622;2.276;2023-10-31T08:56:39;0;0;
62591;PMS5003;48659;41.622;2.276;2023-10-31T08:59:06;1;1;
62591;PMS5003;48659;41.622;2.276;2023-10-31T09:01:33;1;1;
62591;PMS5003;48659;41.622;2.276;2023-10-31T09:04:00;0;0;
62591;PMS5003;48659;41.622;2.276;2023-10-31T09:06:28;0;0;
62591;PMS5003;48659;41.622;2.276;2023-10-31T09:08:55;1;1;
62591;PMS5003;48659;41.622;2.276;2023-10-31T09:11:23;0;0;
62591;PMS5003;48659;41.622;2.276;2023-10-31T09:13:50;0;0;
62591;PMS5003;48659;41.622;2.276;2023-10-31T09:16:19;1;1;
62591;PMS5003;48659;41.622;2.276;2023-10-31T09:18:46;1;1;
62591;PMS5003;48659;41.622;2.276;2023-10-31T09:21:13;1;1;
62591;PMS5003;48659;41.622;2.276;2023-10-31T09:23:41;0;0;
62591;PMS5003;48659;41.622;2.276;2023-10-31T09:26:08;0;0;
62591;PMS5003;48659;41.622;2.276;2023-10-31T09:28:36;2;2;
62591;PMS5003;48659;41.622;2.276;2023-10-31T09:31:04;1;0;
62591;PMS5003;48659;41.622;2.276;2023-10-31T09:33:32;1;0;
62591;PMS5003;48659;41.622;2.276;2023-10-31T09:35:58;1;1;
62591;PMS5003;48659;41.622;2.276;2023-10-31T09:38:26;0;0;
62591;PMS5003;48659;41.622;2.276;2023-10-31T09:40:53;0;0;
62591;PMS5003;48659;41.622;2.276;2023-10-31T09:43:21;0;0;
62591;PMS5003;48659;41.622;2.276;2023-10-31T09:45:49;0;0;
62591;PMS5003;48659;41.622;2.276;2023-10-31T09:48:16;0;0;
62591;PMS5003;48659;41.622;2.276;2023-10-31T09:50:43;0;0;
62591;PMS5003;48659;41.622;2.276;2023-10-31T09:53:11;0;0;
62591;PMS5003;48659;41.622;2.276;2023-10-31T09:55:41;1;1;
62591;PMS5003;48659;41.622;2.276;2023-10-31T09:58:08;1;1;
62591;PMS5003;48659;41.622;2.276;2023-10-31T10:00:36;0;0;
62591;PMS5003;48659;41.622;2.276;2023-10-31T10:03:04;0;0;
62591;PMS5003;48659;41.622;2.276;2023-10-31T10:05:37;0;0;
62591;PMS5003;48659;41.622;2.276;2023-10-31T10:08:07;0;0;
62591;PMS5003;48659;41.622;2.276;2023-10-31T10:10:35;0;0;
62591;PMS5003;48659;41.622;2.276;2023-10-31T10:13:02;1;1;
62591;PMS5003;48659;41.622;2.276;2023-10-31T10:15:30;0;0;
62591;PMS5003;48659;41.622;2.276;2023-10-31T10:18:10;1;1;
62591;PMS5003;48659;41.622;2.276;2023-10-31T10:20:54;0;0;
62591;PMS5003;48659;41.622;2.276;2023-10-31T10:23:23;0;0;
62591;PMS5003;48659;41.622;2.276;2023-10-31T10:25:51;0;0;
62591;PMS5003;48659;41.622;2.276;2023-10-31T10:28:19;0;0;
62591;PMS5003;48659;41.622;2.276;2023-10-31T10:30:47;0;0;
62591;PMS5003;48659;41.622;2.276;2023-10-31T10:33:15;2;0;
62591;PMS5003;48659;41.622;2.276;2023-10-31T10:35:43;0;0;
62591;PMS5003;48659;41.622;2.276;2023-10-31T10:38:11;0;0;
62591;PMS5003;48659;41.622;2.276;2023-10-31T10:40:39;1;0;
62591;PMS5003;48659;41.622;2.276;2023-10-31T10:43:09;0;0;
62591;PMS5003;48659;41.622;2.276;2023-10-31T10:45:42;0;0;
62591;PMS5003;48659;41.622;2.276;2023-10-31T10:48:10;0;0;
62591;PMS5003;48659;41.622;2.276;2023-10-31T10:50:40;0;0;
62591;PMS5003;48659;41.622;2.276;2023-10-31T10:53:13;0;0;
62591;PMS5003;48659;41.622;2.276;2023-10-31T10:55:50;1;0;
62591;PMS5003;48659;41.622;2.276;2023-10-31T10:58:22;0;0;
62591;PMS5003;48659;41.622;2.276;2023-10-31T11:01:03;0;0;
62591;PMS5003;48659;41.622;2.276;2023-10-31T11:03:32;0;0;
62591;PMS5003;48659;41.622;2.276;2023-10-31T11:06:01;0;0;
62591;PMS5003;48659;41.622;2.276;2023-10-31T11:08:30;0;0;
62591;PMS5003;48659;41.622;2.276;2023-10-31T11:10:58;0;0;
62591;PMS5003;48659;41.622;2.276;2023-10-31T11:13:26;0;0;
62591;PMS5003;48659;41.622;2.276;2023-10-31T11:15:55;0;0;
62591;PMS5003;48659;41.622;2.276;2023-10-31T11:18:28;3;3;
62591;PMS5003;48659;41.622;2.276;2023-10-31T11:20:57;0;0;
62591;PMS5003;48659;41.622;2.276;2023-10-31T11:23:25;0;0;
62591;PMS5003;48659;41.622;2.276;2023-10-31T11:25:54;0;0;
62591;PMS5003;48659;41.622;2.276;2023-10-31T11:28:23;0;0;
62591;PMS5003;48659;41.622;2.276;2023-10-31T11:30:50;0;0;
62591;PMS5003;48659;41.622;2.276;2023-10-31T11:33:19;0;0;
62591;PMS5003;48659;41.622;2.276;2023-10-31T11:35:49;0;0;
62591;PMS5003;48659;41.622;2.276;2023-10-31T11:38:17;0;0;
62591;PMS5003;48659;41.622;2.276;2023-10-31T11:40:59;0;0;
62591;PMS5003;48659;41.622;2.276;2023-10-31T11:43:37;1;1;
62591;PMS5003;48659;41.622;2.276;2023-10-31T11:46:19;2;0;
62591;PMS5003;48659;41.622;2.276;2023-10-31T11:48:49;1;1;
62591;PMS5003;48659;41.622;2.276;2023-10-31T11:51:18;0;0;
62591;PMS5003;48659;41.622;2.276;2023-10-31T11:53:45;0;0;
62591;PMS5003;48659;41.622;2.276;2023-10-31T11:56:14;0;0;
62591;PMS5003;48659;41.622;2.276;2023-10-31T11:58:43;0;0;
62591;PMS5003;48659;41.622;2.276;2023-10-31T12:01:10;0;0;
62591;PMS5003;48659;41.622;2.276;2023-10-31T12:03:38;0;0;
62591;PMS5003;48659;41.622;2.276;2023-10-31T12:06:07;0;0;
62591;PMS5003;48659;41.622;2.276;2023-10-31T12:08:35;1;1;
62591;PMS5003;48659;41.622;2.276;2023-10-31T12:11:08;0;0;
62591;PMS5003;48659;41.622;2.276;2023-10-31T12:13:38;2;2;
62591;PMS5003;48659;41.622;2.276;2023-10-31T12:16:07;1;1;
62591;PMS5003;48659;41.622;2.276;2023-10-31T12:18:36;1;1;
62591;PMS5003;48659;41.622;2.276;2023-10-31T12:21:04;12;12;
62591;PMS5003;48659;41.622;2.276;2023-10-31T12:23:32;1;1;
62591;PMS5003;48659;41.622;2.276;2023-10-31T12:25:59;0;0;
62591;PMS5003;48659;41.622;2.276;2023-10-31T12:28:26;1;1;
62591;PMS5003;48659;41.622;2.276;2023-10-31T12:30:54;1;1;
62591;PMS5003;48659;41.622;2.276;2023-10-31T12:33:24;0;0;
62591;PMS5003;48659;41.622;2.276;2023-10-31T12:36:02;0;0;
62591;PMS5003;48659;41.622;2.276;2023-10-31T12:38:31;1;0;
62591;PMS5003;48659;41.622;2.276;2023-10-31T12:40:59;2;2;
62591;PMS5003;48659;41.622;2.276;2023-10-31T12:43:27;0;0;
62591;PMS5003;48659;41.622;2.276;2023-10-31T12:45:55;2;1;
62591;PMS5003;48659;41.622;2.276;2023-10-31T12:48:23;0;0;
62591;PMS5003;48659;41.622;2.276;2023-10-31T12:50:55;1;1;
62591;PMS5003;48659;41.622;2.276;2023-10-31T12:53:32;2;0;
62591;PMS5003;48659;41.622;2.276;2023-10-31T12:56:03;0;0;
62591;PMS5003;48659;41.622;2.276;2023-10-31T12:58:31;1;1;
62591;PMS5003;48659;41.622;2.276;2023-10-31T13:00:58;1;1;
62591;PMS5003;48659;41.622;2.276;2023-10-31T13:03:26;1;1;
62591;PMS5003;48659;41.622;2.276;2023-10-31T13:05:54;0;0;
62591;PMS5003;48659;41.622;2.276;2023-10-31T13:08:22;0;0;
62591;PMS5003;48659;41.622;2.276;2023-10-31T13:10:49;1;0;
62591;PMS5003;48659;41.622;2.276;2023-10-31T13:13:17;0;0;
62591;PMS5003;48659;41.622;2.276;2023-10-31T13:15:44;0;0;
62591;PMS5003;48659;41.622;2.276;2023-10-31T13:18:12;3;1;
62591;PMS5003;48659;41.622;2.276;2023-10-31T13:20:40;1;1;
62591;PMS5003;48659;41.622;2.276;2023-10-31T13:23:07;2;2;
62591;PMS5003;48659;41.622;2.276;2023-10-31T13:25:35;0;0;
62591;PMS5003;48659;41.622;2.276;2023-10-31T13:28:02;0;0;
62591;PMS5003;48659;41.622;2.276;2023-10-31T13:30:30;1;1;
62591;PMS5003;48659;41.622;2.276;2023-10-31T13:32:57;2;1;
62591;PMS5003;48659;41.622;2.276;2023-10-31T13:35:24;3;3;
62591;PMS5003;48659;41.622;2.276;2023-10-31T13:37:51;1;1;
62591;PMS5003;48659;41.622;2.276;2023-10-31T13:40:18;3;3;
62591;PMS5003;48659;41.622;2.276;2023-10-31T13:42:46;3;3;
62591;PMS5003;48659;41.622;2.276;2023-10-31T13:45:14;3;3;
62591;PMS5003;48659;41.622;2.276;2023-10-31T13:47:42;0;0;
62591;PMS5003;48659;41.622;2.276;2023-10-31T13:50:10;1;1;
62591;PMS5003;48659;41.622;2.276;2023-10-31T13:52:38;4;4;
62591;PMS5003;48659;41.622;2.276;2023-10-31T13:55:05;2;0;
62591;PMS5003;48659;41.622;2.276;2023-10-31T13:57:33;1;1;
62591;PMS5003;48659;41.622;2.276;2023-10-31T14:00:00;2;2;
62591;PMS5003;48659;41.622;2.276;2023-10-31T14:02:28;1;1;
62591;PMS5003;48659;41.622;2.276;2023-10-31T14:04:56;1;1;
62591;PMS5003;48659;41.622;2.276;2023-10-31T14:07:23;4;1;
62591;PMS5003;48659;41.622;2.276;2023-10-31T14:09:51;2;2;
62591;PMS5003;48659;41.622;2.276;2023-10-31T14:12:19;1;1;
62591;PMS5003;48659;41.622;2.276;2023-10-31T14:14:47;3;3;
62591;PMS5003;48659;41.622;2.276;2023-10-31T14:17:15;3;1;
62591;PMS5003;48659;41.622;2.276;2023-10-31T14:19:43;2;2;
62591;PMS5003;48659;41.622;2.276;2023-10-31T14:22:11;3;2;
62591;PMS5003;48659;41.622;2.276;2023-10-31T14:24:39;2;2;
62591;PMS5003;48659;41.622;2.276;2023-10-31T14:27:07;2;2;
62591;PMS5003;48659;41.622;2.276;2023-10-31T14:29:34;0;0;
62591;PMS5003;48659;41.622;2.276;2023-10-31T14:32:06;2;1;
62591;PMS5003;48659;41.622;2.276;2023-10-31T14:34:33;4;2;
62591;PMS5003;48659;41.622;2.276;2023-10-31T14:37:01;2;2;
62591;PMS5003;48659;41.622;2.276;2023-10-31T14:39:29;1;1;
62591;PMS5003;48659;41.622;2.276;2023-10-31T14:42:03;3;3;
62591;PMS5003;48659;41.622;2.276;2023-10-31T14:44:30;3;2;
62591;PMS5003;48659;41.622;2.276;2023-10-31T14:46:58;2;2;
62591;PMS5003;48659;41.622;2.276;2023-10-31T14:49:26;4;3;
62591;PMS5003;48659;41.622;2.276;2023-10-31T14:51:54;5;5;
62591;PMS5003;48659;41.622;2.276;2023-10-31T14:52:02;4;4;
62591;PMS5003;48659;41.622;2.276;2023-10-31T14:54:30;3;3;
62591;PMS5003;48659;41.622;2.276;2023-10-31T14:56:57;3;3;
62591;PMS5003;48659;41.622;2.276;2023-10-31T14:59:25;2;2;
62591;PMS5003;48659;41.622;2.276;2023-10-31T15:01:52;2;2;
62591;PMS5003;48659;41.622;2.276;2023-10-31T15:04:20;1;1;
62591;PMS5003;48659;41.622;2.276;2023-10-31T15:06:48;2;2;
62591;PMS5003;48659;41.622;2.276;2023-10-31T15:09:16;0;0;
62591;PMS5003;48659;41.622;2.276;2023-10-31T15:11:43;1;1;
62591;PMS5003;48659;41.622;2.276;2023-10-31T15:14:11;4;3;
62591;PMS5003;48659;41.622;2.276;2023-10-31T15:16:39;4;2;
62591;PMS5003;48659;41.622;2.276;2023-10-31T15:19:07;1;1;
62591;PMS5003;48659;41.622;2.276;2023-10-31T15:21:34;2;2;
62591;PMS5003;48659;41.622;2.276;2023-10-31T15:24:01;2;2;
62591;PMS5003;48659;41.622;2.276;2023-10-31T15:26:29;3;3;
62591;PMS5003;48659;41.622;2.276;2023-10-31T15:28:57;3;3;
62591;PMS5003;48659;41.622;2.276;2023-10-31T15:31:25;2;2;
62591;PMS5003;48659;41.622;2.276;2023-10-31T15:33:52;1;1;
62591;PMS5003;48659;41.622;2.276;2023-10-31T15:36:20;3;3;
62591;PMS5003;48659;41.622;2.276;2023-10-31T15:38:48;4;2;
62591;PMS5003;48659;41.622;2.276;2023-10-31T15:41:15;2;2;
62591;PMS5003;48659;41.622;2.276;2023-10-31T15:43:42;2;2;
62591;PMS5003;48659;41.622;2.276;2023-10-31T15:46:10;10;10;
62591;PMS5003;48659;41.622;2.276;2023-10-31T15:48:37;3;3;
62591;PMS5003;48659;41.622;2.276;2023-10-31T15:51:06;2;2;
62591;PMS5003;48659;41.622;2.276;2023-10-31T15:53:34;11;9;
62591;PMS5003;48659;41.622;2.276;2023-10-31T15:56:01;3;3;
62591;PMS5003;48659;41.622;2.276;2023-10-31T15:58:28;2;2;
62591;PMS5003;48659;41.622;2.276;2023-10-31T16:00:56;6;3;
62591;PMS5003;48659;41.622;2.276;2023-10-31T16:03:24;6;6;
62591;PMS5003;48659;41.622;2.276;2023-10-31T16:05:52;5;5;
62591;PMS5003;48659;41.622;2.276;2023-10-31T16:08:19;8;8;
62591;PMS5003;48659;41.622;2.276;2023-10-31T16:10:45;2;2;
62591;PMS5003;48659;41.622;2.276;2023-10-31T16:13:12;3;2;
62591;PMS5003;48659;41.622;2.276;2023-10-31T16:15:40;3;3;
62591;PMS5003;48659;41.622;2.276;2023-10-31T16:18:08;5;5;
62591;PMS5003;48659;41.622;2.276;2023-10-31T16:20:35;6;5;
62591;PMS5003;48659;41.622;2.276;2023-10-31T16:23:02;6;4;
62591;PMS5003;48659;41.622;2.276;2023-10-31T16:25:29;4;4;
62591;PMS5003;48659;41.622;2.276;2023-10-31T16:27:57;4;4;
62591;PMS5003;48659;41.622;2.276;2023-10-31T16:30:24;7;7;
62591;PMS5003;48659;41.622;2.276;2023-10-31T16:32:52;8;8;
62591;PMS5003;48659;41.622;2.276;2023-10-31T16:35:18;8;5;
62591;PMS5003;48659;41.622;2.276;2023-10-31T16:37:45;6;6;
62591;PMS5003;48659;41.622;2.276;2023-10-31T16:40:13;4;4;
62591;PMS5003;48659;41.622;2.276;2023-10-31T16:42:40;8;6;
62591;PMS5003;48659;41.622;2.276;2023-10-31T16:45:07;5;5;
62591;PMS5003;48659;41.622;2.276;2023-10-31T16:47:36;9;6;
62591;PMS5003;48659;41.622;2.276;2023-10-31T16:50:07;3;3;
62591;PMS5003;48659;41.622;2.276;2023-10-31T16:52:35;4;4;
62591;PMS5003;48659;41.622;2.276;2023-10-31T16:55:02;12;10;
62591;PMS5003;48659;41.622;2.276;2023-10-31T16:57:30;15;13;
62591;PMS5003;48659;41.622;2.276;2023-10-31T16:59:59;11;11;